sensor_id;sensor_type;location;lat;lon;timestamp;pressure;altitude;pressure_sealevel;temperature;humidity
34983;BME280;21187;50.976;13.720;2023-08-06T00:04:20;97487.47;;;19.71;57.10
34983;BME280;21187;50.976;13.720;2023-08-06T00:09:22;97480.25;;;19.77;57.17
34983;BME280;21187;50.976;13.720;2023-08-06T00:14:24;97465.66;;;19.80;56.98
34983;BME280;21187;50.976;13.720;2023-08-06T00:19:26;97457.84;;;19.78;56.92
34983;BME280;21187;50.976;13.720;2023-08-06T00:24:28;97450.13;;;19.73;56.94
34983;BME280;21187;50.976;13.720;2023-08-06T00:29:30;97457.31;;;19.67;57.12
34983;BME280;21187;50.976;13.720;2023-08-06T00:34:32;97455.44;;;19.64;57.23
34983;BME280;21187;50.976;13.720;2023-08-06T00:39:34;97460.56;;;19.62;57.28
34983;BME280;21187;50.976;13.720;2023-08-06T00:44:37;97452.00;;;19.60;57.29
34983;BME280;21187;50.976;13.720;2023-08-06T00:49:39;97440.34;;;19.56;57.40
34983;BME280;21187;50.976;13.720;2023-08-06T00:54:41;97429.06;;;19.50;57.17
34983;BME280;21187;50.976;13.720;2023-08-06T00:59:43;97422.44;;;19.48;57.41
34983;BME280;21187;50.976;13.720;2023-08-06T01:04:46;97416.97;;;19.48;57.38
34983;BME280;21187;50.976;13.720;2023-08-06T01:09:57;97404.34;;;19.50;57.48
34983;BME280;21187;50.976;13.720;2023-08-06T01:15:21;97390.19;;;19.52;57.66
34983;BME280;21187;50.976;13.720;2023-08-06T01:20:30;97391.41;;;19.51;57.55
34983;BME280;21187;50.976;13.720;2023-08-06T01:25:56;97393.47;;;19.47;57.69
34983;BME280;21187;50.976;13.720;2023-08-06T01:31:27;97384.34;;;19.33;57.99
34983;BME280;21187;50.976;13.720;2023-08-06T01:36:32;97382.34;;;19.17;58.18
34983;BME280;21187;50.976;13.720;2023-08-06T01:41:34;97388.16;;;18.83;59.38
34983;BME280;21187;50.976;13.720;2023-08-06T01:46:37;97377.84;;;18.70;59.67
34983;BME280;21187;50.976;13.720;2023-08-06T01:51:41;97373.06;;;18.74;59.67
34983;BME280;21187;50.976;13.720;2023-08-06T01:56:43;97377.38;;;18.75;59.51
34983;BME280;21187;50.976;13.720;2023-08-06T02:01:45;97366.50;;;18.88;59.28
34983;BME280;21187;50.976;13.720;2023-08-06T02:06:47;97374.25;;;18.93;59.26
34983;BME280;21187;50.976;13.720;2023-08-06T02:11:49;97383.03;;;18.85;59.38
34983;BME280;21187;50.976;13.720;2023-08-06T02:16:51;97372.47;;;18.83;59.61
34983;BME280;21187;50.976;13.720;2023-08-06T02:21:53;97373.56;;;18.89;59.49
34983;BME280;21187;50.976;13.720;2023-08-06T02:26:56;97372.63;;;18.96;59.24
34983;BME280;21187;50.976;13.720;2023-08-06T02:31:58;97370.09;;;18.85;59.29
34983;BME280;21187;50.976;13.720;2023-08-06T02:37:00;97369.53;;;18.74;59.87
34983;BME280;21187;50.976;13.720;2023-08-06T02:42:03;97357.59;;;18.64;60.17
34983;BME280;21187;50.976;13.720;2023-08-06T02:47:05;97349.00;;;18.62;60.16
34983;BME280;21187;50.976;13.720;2023-08-06T02:52:07;97346.56;;;18.68;60.10
34983;BME280;21187;50.976;13.720;2023-08-06T02:57:09;97342.00;;;18.61;60.28
34983;BME280;21187;50.976;13.720;2023-08-06T03:02:12;97341.38;;;18.53;60.67
34983;BME280;21187;50.976;13.720;2023-08-06T03:07:26;97327.16;;;18.58;60.43
34983;BME280;21187;50.976;13.720;2023-08-06T03:12:34;97326.38;;;18.58;60.48
34983;BME280;21187;50.976;13.720;2023-08-06T03:17:38;97320.28;;;18.50;60.67
34983;BME280;21187;50.976;13.720;2023-08-06T03:22:42;97309.09;;;18.61;60.44
34983;BME280;21187;50.976;13.720;2023-08-06T03:27:45;97305.69;;;18.73;60.18
34983;BME280;21187;50.976;13.720;2023-08-06T03:32:49;97312.22;;;18.79;60.16
34983;BME280;21187;50.976;13.720;2023-08-06T03:37:54;97293.72;;;18.84;60.16
34983;BME280;21187;50.976;13.720;2023-08-06T03:42:56;97288.88;;;18.91;60.14
34983;BME280;21187;50.976;13.720;2023-08-06T03:47:58;97280.13;;;18.97;60.10
34983;BME280;21187;50.976;13.720;2023-08-06T03:53:01;97276.09;;;19.01;60.06
34983;BME280;21187;50.976;13.720;2023-08-06T03:58:03;97276.09;;;19.01;59.71
34983;BME280;21187;50.976;13.720;2023-08-06T04:03:06;97265.13;;;19.01;59.85
34983;BME280;21187;50.976;13.720;2023-08-06T04:08:08;97256.19;;;18.97;59.74
34983;BME280;21187;50.976;13.720;2023-08-06T04:13:10;97250.47;;;18.91;59.89
34983;BME280;21187;50.976;13.720;2023-08-06T04:18:12;97246.41;;;18.96;59.45
34983;BME280;21187;50.976;13.720;2023-08-06T04:23:15;97237.34;;;18.99;59.93
34983;BME280;21187;50.976;13.720;2023-08-06T04:28:17;97235.44;;;18.96;59.98
34983;BME280;21187;50.976;13.720;2023-08-06T04:33:20;97216.59;;;18.98;59.89
34983;BME280;21187;50.976;13.720;2023-08-06T04:38:24;97208.50;;;18.91;59.86
34983;BME280;21187;50.976;13.720;2023-08-06T04:43:30;97221.53;;;18.87;60.14
34983;BME280;21187;50.976;13.720;2023-08-06T04:48:32;97221.91;;;18.89;60.11
34983;BME280;21187;50.976;13.720;2023-08-06T04:53:34;97218.28;;;18.92;60.10
34983;BME280;21187;50.976;13.720;2023-08-06T04:58:35;97217.09;;;18.93;60.08
34983;BME280;21187;50.976;13.720;2023-08-06T05:03:40;97208.69;;;19.00;60.12
34983;BME280;21187;50.976;13.720;2023-08-06T05:09:01;97202.25;;;19.07;60.12
34983;BME280;21187;50.976;13.720;2023-08-06T05:19:52;97207.22;;;19.12;59.77
34983;BME280;21187;50.976;13.720;2023-08-06T05:31:11;97183.31;;;18.96;60.24
34983;BME280;21187;50.976;13.720;2023-08-06T05:36:50;97187.41;;;18.71;60.79
34983;BME280;21187;50.976;13.720;2023-08-06T05:42:30;97173.88;;;18.48;61.36
34983;BME280;21187;50.976;13.720;2023-08-06T05:48:09;97178.50;;;18.51;61.27
34983;BME280;21187;50.976;13.720;2023-08-06T05:53:48;97181.50;;;18.56;61.33
34983;BME280;21187;50.976;13.720;2023-08-06T05:59:27;97179.88;;;18.59;61.52
34983;BME280;21187;50.976;13.720;2023-08-06T06:05:06;97174.91;;;18.70;61.23
34983;BME280;21187;50.976;13.720;2023-08-06T06:10:58;97170.44;;;18.76;61.18
34983;BME280;21187;50.976;13.720;2023-08-06T06:16:03;97165.97;;;18.83;61.36
34983;BME280;21187;50.976;13.720;2023-08-06T06:21:05;97174.31;;;18.95;61.11
34983;BME280;21187;50.976;13.720;2023-08-06T10:41:00;97041.38;;;20.20;60.85
34983;BME280;21187;50.976;13.720;2023-08-06T10:46:08;97033.22;;;20.29;60.91
34983;BME280;21187;50.976;13.720;2023-08-06T10:51:12;97029.56;;;20.32;61.11
34983;BME280;21187;50.976;13.720;2023-08-06T10:56:16;97027.25;;;20.43;60.60
34983;BME280;21187;50.976;13.720;2023-08-06T11:01:18;97028.63;;;20.61;60.56
34983;BME280;21187;50.976;13.720;2023-08-06T11:07:15;97018.59;;;20.67;60.05
34983;BME280;21187;50.976;13.720;2023-08-06T11:13:16;97006.72;;;20.70;59.73
34983;BME280;21187;50.976;13.720;2023-08-06T11:19:16;97016.66;;;20.55;59.69
34983;BME280;21187;50.976;13.720;2023-08-06T11:24:18;97003.47;;;20.50;59.77
34983;BME280;21187;50.976;13.720;2023-08-06T11:29:20;97007.19;;;20.56;59.29
34983;BME280;21187;50.976;13.720;2023-08-06T11:34:24;97005.66;;;20.55;59.21
34983;BME280;21187;50.976;13.720;2023-08-06T11:39:26;97008.97;;;20.50;58.79
34983;BME280;21187;50.976;13.720;2023-08-06T15:29:32;96960.03;;;22.98;51.34
34983;BME280;21187;50.976;13.720;2023-08-06T15:34:34;96962.47;;;22.96;51.55
34983;BME280;21187;50.976;13.720;2023-08-06T15:39:36;96968.94;;;22.93;51.55
34983;BME280;21187;50.976;13.720;2023-08-06T15:44:38;96964.03;;;22.88;51.85
34983;BME280;21187;50.976;13.720;2023-08-06T15:50:37;96948.09;;;22.83;51.77
34983;BME280;21187;50.976;13.720;2023-08-06T15:56:34;96957.59;;;22.82;51.83
34983;BME280;21187;50.976;13.720;2023-08-06T16:02:07;96955.47;;;22.76;51.88
34983;BME280;21187;50.976;13.720;2023-08-06T16:07:10;96945.06;;;22.71;51.91
34983;BME280;21187;50.976;13.720;2023-08-06T16:12:12;96942.59;;;22.64;52.03
34983;BME280;21187;50.976;13.720;2023-08-06T16:17:13;96944.28;;;22.62;52.01
34983;BME280;21187;50.976;13.720;2023-08-06T16:22:25;96965.13;;;22.53;52.24
34983;BME280;21187;50.976;13.720;2023-08-06T16:27:27;96966.50;;;22.39;52.30
34983;BME280;21187;50.976;13.720;2023-08-06T16:32:29;96968.97;;;22.37;52.16
34983;BME280;21187;50.976;13.720;2023-08-06T16:37:31;96970.19;;;22.36;52.23
34983;BME280;21187;50.976;13.720;2023-08-06T16:42:33;96975.03;;;22.32;52.37
34983;BME280;21187;50.976;13.720;2023-08-06T16:47:35;96965.53;;;22.24;52.48
34983;BME280;21187;50.976;13.720;2023-08-06T16:52:37;96969.78;;;22.06;52.91
34983;BME280;21187;50.976;13.720;2023-08-06T16:58:34;96968.22;;;21.87;53.47
34983;BME280;21187;50.976;13.720;2023-08-06T17:04:31;96955.03;;;21.72;53.96
34983;BME280;21187;50.976;13.720;2023-08-06T17:10:30;96932.00;;;21.57;54.47
34983;BME280;21187;50.976;13.720;2023-08-06T17:16:27;96966.78;;;21.41;54.76
34983;BME280;21187;50.976;13.720;2023-08-06T17:22:24;96972.25;;;21.32;55.12
34983;BME280;21187;50.976;13.720;2023-08-06T17:28:21;96966.72;;;21.23;55.21
34983;BME280;21187;50.976;13.720;2023-08-06T17:34:18;96967.91;;;21.22;55.72
34983;BME280;21187;50.976;13.720;2023-08-06T17:40:14;96969.59;;;21.19;55.76
34983;BME280;21187;50.976;13.720;2023-08-06T17:46:11;96987.94;;;21.13;55.88
34983;BME280;21187;50.976;13.720;2023-08-06T17:51:13;96988.81;;;21.10;56.05
34983;BME280;21187;50.976;13.720;2023-08-06T17:56:15;96988.28;;;21.02;56.31
34983;BME280;21187;50.976;13.720;2023-08-06T18:02:12;96982.66;;;20.84;56.54
34983;BME280;21187;50.976;13.720;2023-08-06T18:08:10;97002.31;;;20.60;57.37
34983;BME280;21187;50.976;13.720;2023-08-06T18:14:08;97011.88;;;20.33;58.00
34983;BME280;21187;50.976;13.720;2023-08-06T18:20:05;97001.97;;;20.36;57.99
34983;BME280;21187;50.976;13.720;2023-08-06T18:26:04;97007.44;;;20.49;57.56
34983;BME280;21187;50.976;13.720;2023-08-06T18:32:01;97012.03;;;20.52;57.76
34983;BME280;21187;50.976;13.720;2023-08-06T18:37:58;97015.44;;;20.56;57.48
34983;BME280;21187;50.976;13.720;2023-08-06T18:43:55;97018.19;;;20.56;57.28
34983;BME280;21187;50.976;13.720;2023-08-06T18:49:16;97025.22;;;20.57;57.07
34983;BME280;21187;50.976;13.720;2023-08-06T18:54:18;97032.84;;;20.53;56.70
34983;BME280;21187;50.976;13.720;2023-08-06T18:59:20;97041.56;;;20.38;56.78
34983;BME280;21187;50.976;13.720;2023-08-06T19:04:25;97047.06;;;20.25;57.20
34983;BME280;21187;50.976;13.720;2023-08-06T19:09:27;97057.53;;;20.18;57.37
34983;BME280;21187;50.976;13.720;2023-08-06T19:14:30;97056.56;;;20.11;57.32
34983;BME280;21187;50.976;13.720;2023-08-06T19:19:33;97057.09;;;20.06;57.42
34983;BME280;21187;50.976;13.720;2023-08-06T19:24:35;97077.63;;;19.76;57.26
34983;BME280;21187;50.976;13.720;2023-08-06T19:29:37;97078.91;;;19.16;58.23
34983;BME280;21187;50.976;13.720;2023-08-06T19:34:40;97066.97;;;18.93;58.34
34983;BME280;21187;50.976;13.720;2023-08-06T19:39:42;97062.31;;;18.61;59.02
34983;BME280;21187;50.976;13.720;2023-08-06T19:44:44;97054.97;;;18.41;59.30
34983;BME280;21187;50.976;13.720;2023-08-06T19:49:46;97032.25;;;18.41;59.43
34983;BME280;21187;50.976;13.720;2023-08-06T19:54:48;97036.38;;;18.33;59.58
34983;BME280;21187;50.976;13.720;2023-08-06T19:59:51;97027.53;;;18.41;59.31
34983;BME280;21187;50.976;13.720;2023-08-06T20:04:53;97044.69;;;18.12;60.02
34983;BME280;21187;50.976;13.720;2023-08-06T20:09:56;97040.53;;;17.88;60.72
34983;BME280;21187;50.976;13.720;2023-08-06T20:14:58;97044.88;;;17.69;61.40
34983;BME280;21187;50.976;13.720;2023-08-06T20:20:01;97042.69;;;17.60;61.77
34983;BME280;21187;50.976;13.720;2023-08-06T20:25:03;97039.78;;;17.51;62.19
34983;BME280;21187;50.976;13.720;2023-08-06T20:30:06;97042.19;;;17.49;62.45
34983;BME280;21187;50.976;13.720;2023-08-06T20:35:08;97040.75;;;17.40;62.90
34983;BME280;21187;50.976;13.720;2023-08-06T20:45:57;97042.00;;;17.56;62.71
34983;BME280;21187;50.976;13.720;2023-08-06T20:51:01;97049.22;;;17.66;62.62
34983;BME280;21187;50.976;13.720;2023-08-06T20:56:04;97047.78;;;17.78;62.11
34983;BME280;21187;50.976;13.720;2023-08-06T21:08:36;97051.59;;;17.64;62.59
34983;BME280;21187;50.976;13.720;2023-08-06T21:14:33;97055.34;;;17.54;62.92
34983;BME280;21187;50.976;13.720;2023-08-06T21:20:24;97055.34;;;17.54;63.03
34983;BME280;21187;50.976;13.720;2023-08-06T21:25:26;97042.88;;;17.53;63.20
34983;BME280;21187;50.976;13.720;2023-08-06T21:30:30;97041.56;;;17.57;63.17
34983;BME280;21187;50.976;13.720;2023-08-06T21:35:32;97038.16;;;17.53;63.26
34983;BME280;21187;50.976;13.720;2023-08-06T21:40:34;97046.78;;;17.52;63.32
34983;BME280;21187;50.976;13.720;2023-08-06T21:45:36;97050.38;;;17.49;63.60
34983;BME280;21187;50.976;13.720;2023-08-06T21:50:39;97050.28;;;17.52;63.54
34983;BME280;21187;50.976;13.720;2023-08-06T21:55:41;97056.56;;;17.53;63.74
34983;BME280;21187;50.976;13.720;2023-08-06T22:00:43;97052.25;;;17.52;63.87
34983;BME280;21187;50.976;13.720;2023-08-06T22:05:45;97049.25;;;17.46;64.26
34983;BME280;21187;50.976;13.720;2023-08-06T22:10:48;97046.84;;;17.48;64.34
34983;BME280;21187;50.976;13.720;2023-08-06T22:15:50;97053.13;;;17.49;64.32
34983;BME280;21187;50.976;13.720;2023-08-06T22:20:56;97053.19;;;17.45;64.62
34983;BME280;21187;50.976;13.720;2023-08-06T22:25:58;97059.50;;;17.42;64.76
34983;BME280;21187;50.976;13.720;2023-08-06T22:31:00;97058.31;;;17.43;64.65
34983;BME280;21187;50.976;13.720;2023-08-06T22:36:02;97060.22;;;17.46;64.78
34983;BME280;21187;50.976;13.720;2023-08-06T22:41:04;97056.00;;;17.41;64.86
34983;BME280;21187;50.976;13.720;2023-08-06T22:46:09;97062.66;;;17.40;64.98
34983;BME280;21187;50.976;13.720;2023-08-06T22:51:11;97055.63;;;17.39;65.02
34983;BME280;21187;50.976;13.720;2023-08-06T22:56:12;97067.78;;;17.38;64.90
34983;BME280;21187;50.976;13.720;2023-08-06T23:01:14;97067.78;;;17.38;64.90
34983;BME280;21187;50.976;13.720;2023-08-06T23:06:16;97073.19;;;17.42;64.55
34983;BME280;21187;50.976;13.720;2023-08-06T23:11:18;97073.59;;;17.40;64.50
34983;BME280;21187;50.976;13.720;2023-08-06T23:16:20;97076.00;;;17.38;64.48
34983;BME280;21187;50.976;13.720;2023-08-06T23:21:22;97067.94;;;17.31;64.66
34983;BME280;21187;50.976;13.720;2023-08-06T23:26:27;97074.59;;;17.30;64.43
34983;BME280;21187;50.976;13.720;2023-08-06T23:31:29;97080.22;;;17.23;64.58
34983;BME280;21187;50.976;13.720;2023-08-06T23:36:31;97067.88;;;17.15;64.53
34983;BME280;21187;50.976;13.720;2023-08-06T23:41:33;97063.22;;;17.11;64.68
34983;BME280;21187;50.976;13.720;2023-08-06T23:46:35;97064.44;;;17.10;64.37
34983;BME280;21187;50.976;13.720;2023-08-06T23:51:39;97066.25;;;17.17;64.37
34983;BME280;21187;50.976;13.720;2023-08-06T23:56:41;97065.69;;;17.06;64.75
